sensor_id;sensor_type;location;lat;lon;timestamp;temperature;humidity
44509;DHT22;30214;52.246;14.408;2022-10-16T00:01:12;14.20;99.90
44509;DHT22;30214;52.246;14.408;2022-10-16T00:03:41;14.30;99.90
44509;DHT22;30214;52.246;14.408;2022-10-16T00:06:10;14.30;99.90
44509;DHT22;30214;52.246;14.408;2022-10-16T00:08:38;14.30;99.90
44509;DHT22;30214;52.246;14.408;2022-10-16T00:11:08;14.20;99.90
44509;DHT22;30214;52.246;14.408;2022-10-16T00:13:38;14.20;99.90
44509;DHT22;30214;52.246;14.408;2022-10-16T00:16:06;14.20;99.90
44509;DHT22;30214;52.246;14.408;2022-10-16T00:18:36;14.10;99.90
44509;DHT22;30214;52.246;14.408;2022-10-16T00:21:04;14.10;99.90
44509;DHT22;30214;52.246;14.408;2022-10-16T00:23:33;14.00;99.90
44509;DHT22;30214;52.246;14.408;2022-10-16T00:26:04;14.00;99.90
44509;DHT22;30214;52.246;14.408;2022-10-16T00:28:33;13.90;99.90
44509;DHT22;30214;52.246;14.408;2022-10-16T00:31:03;14.00;99.90
44509;DHT22;30214;52.246;14.408;2022-10-16T00:33:31;13.90;99.90
44509;DHT22;30214;52.246;14.408;2022-10-16T00:35:59;13.90;99.90
44509;DHT22;30214;52.246;14.408;2022-10-16T00:38:27;13.90;99.90
44509;DHT22;30214;52.246;14.408;2022-10-16T00:40:54;13.90;99.90
44509;DHT22;30214;52.246;14.408;2022-10-16T00:43:37;14.00;99.90
44509;DHT22;30214;52.246;14.408;2022-10-16T00:46:11;14.00;99.90
44509;DHT22;30214;52.246;14.408;2022-10-16T00:48:42;14.00;99.90
44509;DHT22;30214;52.246;14.408;2022-10-16T00:51:14;14.00;99.90
44509;DHT22;30214;52.246;14.408;2022-10-16T00:53:41;14.00;99.90
44509;DHT22;30214;52.246;14.408;2022-10-16T00:56:08;14.10;99.90
44509;DHT22;30214;52.246;14.408;2022-10-16T00:58:35;14.30;99.90
44509;DHT22;30214;52.246;14.408;2022-10-16T01:01:02;14.30;99.90
44509;DHT22;30214;52.246;14.408;2022-10-16T01:03:33;14.30;99.90
44509;DHT22;30214;52.246;14.408;2022-10-16T01:06:23;14.30;99.90
44509;DHT22;30214;52.246;14.408;2022-10-16T01:09:04;14.40;99.90
44509;DHT22;30214;52.246;14.408;2022-10-16T01:11:44;14.30;99.90
44509;DHT22;30214;52.246;14.408;2022-10-16T01:14:21;14.40;99.90
44509;DHT22;30214;52.246;14.408;2022-10-16T01:16:53;14.40;99.90
44509;DHT22;30214;52.246;14.408;2022-10-16T01:19:26;14.50;99.90
44509;DHT22;30214;52.246;14.408;2022-10-16T01:22:13;14.50;99.90
44509;DHT22;30214;52.246;14.408;2022-10-16T01:24:44;14.40;99.90
44509;DHT22;30214;52.246;14.408;2022-10-16T01:27:15;14.40;99.90
44509;DHT22;30214;52.246;14.408;2022-10-16T01:29:50;14.40;99.90
44509;DHT22;30214;52.246;14.408;2022-10-16T01:32:28;14.40;99.90
44509;DHT22;30214;52.246;14.408;2022-10-16T01:35:02;14.40;99.90
44509;DHT22;30214;52.246;14.408;2022-10-16T01:37:35;14.40;99.90
44509;DHT22;30214;52.246;14.408;2022-10-16T01:40:09;14.40;99.90
44509;DHT22;30214;52.246;14.408;2022-10-16T01:42:41;14.40;99.90
44509;DHT22;30214;52.246;14.408;2022-10-16T01:45:13;14.30;99.90
44509;DHT22;30214;52.246;14.408;2022-10-16T01:47:44;14.30;99.90
44509;DHT22;30214;52.246;14.408;2022-10-16T01:50:15;14.30;99.90
44509;DHT22;30214;52.246;14.408;2022-10-16T01:52:46;14.30;99.90
44509;DHT22;30214;52.246;14.408;2022-10-16T01:55:20;14.30;99.90
44509;DHT22;30214;52.246;14.408;2022-10-16T01:57:51;14.30;99.90
44509;DHT22;30214;52.246;14.408;2022-10-16T02:00:22;14.30;99.90
44509;DHT22;30214;52.246;14.408;2022-10-16T02:02:51;14.30;99.90
44509;DHT22;30214;52.246;14.408;2022-10-16T02:05:23;14.30;99.90
44509;DHT22;30214;52.246;14.408;2022-10-16T02:07:55;14.30;99.90
44509;DHT22;30214;52.246;14.408;2022-10-16T02:10:23;14.30;99.90
44509;DHT22;30214;52.246;14.408;2022-10-16T02:12:56;14.40;99.90
44509;DHT22;30214;52.246;14.408;2022-10-16T02:15:27;14.40;99.90
44509;DHT22;30214;52.246;14.408;2022-10-16T02:17:55;14.50;99.90
44509;DHT22;30214;52.246;14.408;2022-10-16T02:20:25;14.50;99.90
44509;DHT22;30214;52.246;14.408;2022-10-16T02:22:56;14.50;99.90
44509;DHT22;30214;52.246;14.408;2022-10-16T02:25:27;14.50;99.90
44509;DHT22;30214;52.246;14.408;2022-10-16T02:28:02;14.50;99.90
44509;DHT22;30214;52.246;14.408;2022-10-16T02:30:34;14.60;99.90
44509;DHT22;30214;52.246;14.408;2022-10-16T02:33:07;14.60;99.90
44509;DHT22;30214;52.246;14.408;2022-10-16T02:35:36;14.60;99.90
44509;DHT22;30214;52.246;14.408;2022-10-16T02:38:04;14.70;99.90
44509;DHT22;30214;52.246;14.408;2022-10-16T02:40:33;14.70;99.90
44509;DHT22;30214;52.246;14.408;2022-10-16T02:43:03;14.60;99.90
44509;DHT22;30214;52.246;14.408;2022-10-16T02:45:31;14.60;99.90
44509;DHT22;30214;52.246;14.408;2022-10-16T02:47:59;14.60;99.90
44509;DHT22;30214;52.246;14.408;2022-10-16T02:50:26;14.60;99.90
44509;DHT22;30214;52.246;14.408;2022-10-16T02:52:53;14.60;99.90
44509;DHT22;30214;52.246;14.408;2022-10-16T02:55:20;14.60;99.90
44509;DHT22;30214;52.246;14.408;2022-10-16T02:57:47;14.60;99.90
44509;DHT22;30214;52.246;14.408;2022-10-16T03:00:17;14.60;99.90
44509;DHT22;30214;52.246;14.408;2022-10-16T03:02:44;14.60;99.90
44509;DHT22;30214;52.246;14.408;2022-10-16T03:05:12;14.60;99.90
44509;DHT22;30214;52.246;14.408;2022-10-16T03:07:40;14.70;99.90
44509;DHT22;30214;52.246;14.408;2022-10-16T03:10:07;14.70;99.90
44509;DHT22;30214;52.246;14.408;2022-10-16T03:12:35;14.60;99.90
44509;DHT22;30214;52.246;14.408;2022-10-16T03:15:03;14.60;99.90
44509;DHT22;30214;52.246;14.408;2022-10-16T03:17:33;14.60;99.90
44509;DHT22;30214;52.246;14.408;2022-10-16T03:20:00;14.70;99.90
44509;DHT22;30214;52.246;14.408;2022-10-16T03:22:27;14.70;99.90
44509;DHT22;30214;52.246;14.408;2022-10-16T03:24:54;14.70;99.90
44509;DHT22;30214;52.246;14.408;2022-10-16T03:27:21;14.70;99.90
44509;DHT22;30214;52.246;14.408;2022-10-16T03:29:48;14.70;99.90
44509;DHT22;30214;52.246;14.408;2022-10-16T03:32:16;14.70;99.90
44509;DHT22;30214;52.246;14.408;2022-10-16T03:34:45;14.80;99.90
44509;DHT22;30214;52.246;14.408;2022-10-16T03:37:12;14.80;99.90
44509;DHT22;30214;52.246;14.408;2022-10-16T03:39:39;14.80;99.90
44509;DHT22;30214;52.246;14.408;2022-10-16T03:42:06;14.80;99.90
44509;DHT22;30214;52.246;14.408;2022-10-16T03:44:33;14.80;99.90
44509;DHT22;30214;52.246;14.408;2022-10-16T03:47:01;14.80;99.90
44509;DHT22;30214;52.246;14.408;2022-10-16T03:49:28;14.80;99.90
44509;DHT22;30214;52.246;14.408;2022-10-16T03:51:56;14.80;99.90
44509;DHT22;30214;52.246;14.408;2022-10-16T03:54:23;14.80;99.90
44509;DHT22;30214;52.246;14.408;2022-10-16T03:56:50;14.90;99.90
44509;DHT22;30214;52.246;14.408;2022-10-16T03:59:17;14.90;99.90
44509;DHT22;30214;52.246;14.408;2022-10-16T04:01:45;14.90;99.90
44509;DHT22;30214;52.246;14.408;2022-10-16T04:04:12;14.80;99.90
44509;DHT22;30214;52.246;14.408;2022-10-16T04:06:39;14.80;99.90
44509;DHT22;30214;52.246;14.408;2022-10-16T04:09:07;14.80;99.90
44509;DHT22;30214;52.246;14.408;2022-10-16T04:11:34;14.80;99.90
44509;DHT22;30214;52.246;14.408;2022-10-16T04:14:01;14.80;99.90
44509;DHT22;30214;52.246;14.408;2022-10-16T04:16:28;14.70;99.90
44509;DHT22;30214;52.246;14.408;2022-10-16T04:18:55;14.70;99.90
44509;DHT22;30214;52.246;14.408;2022-10-16T04:21:22;14.70;99.90
44509;DHT22;30214;52.246;14.408;2022-10-16T04:23:50;14.60;99.90
44509;DHT22;30214;52.246;14.408;2022-10-16T04:26:18;14.60;99.90
44509;DHT22;30214;52.246;14.408;2022-10-16T04:28:45;14.60;99.90
44509;DHT22;30214;52.246;14.408;2022-10-16T04:31:12;14.60;99.90
44509;DHT22;30214;52.246;14.408;2022-10-16T04:33:42;14.60;99.90
44509;DHT22;30214;52.246;14.408;2022-10-16T04:36:09;14.60;99.90
44509;DHT22;30214;52.246;14.408;2022-10-16T04:38:36;14.60;99.90
44509;DHT22;30214;52.246;14.408;2022-10-16T04:41:05;14.60;99.90
44509;DHT22;30214;52.246;14.408;2022-10-16T04:43:34;14.60;99.90
44509;DHT22;30214;52.246;14.408;2022-10-16T04:46:01;14.50;99.90
44509;DHT22;30214;52.246;14.408;2022-10-16T04:48:30;14.50;99.90
44509;DHT22;30214;52.246;14.408;2022-10-16T04:50:57;14.50;99.90
44509;DHT22;30214;52.246;14.408;2022-10-16T04:53:24;14.50;99.90
44509;DHT22;30214;52.246;14.408;2022-10-16T04:55:51;14.50;99.90
44509;DHT22;30214;52.246;14.408;2022-10-16T04:58:18;14.50;99.90
44509;DHT22;30214;52.246;14.408;2022-10-16T05:00:46;14.50;99.90
44509;DHT22;30214;52.246;14.408;2022-10-16T05:03:13;14.40;99.90
44509;DHT22;30214;52.246;14.408;2022-10-16T05:05:42;14.30;99.90
44509;DHT22;30214;52.246;14.408;2022-10-16T05:08:12;14.30;99.90
44509;DHT22;30214;52.246;14.408;2022-10-16T05:10:42;14.20;99.90
44509;DHT22;30214;52.246;14.408;2022-10-16T05:13:10;14.20;99.90
44509;DHT22;30214;52.246;14.408;2022-10-16T05:15:37;14.20;99.90
44509;DHT22;30214;52.246;14.408;2022-10-16T05:18:05;14.10;99.90
44509;DHT22;30214;52.246;14.408;2022-10-16T05:20:32;14.00;99.90
44509;DHT22;30214;52.246;14.408;2022-10-16T05:23:00;14.00;99.90
44509;DHT22;30214;52.246;14.408;2022-10-16T05:25:27;13.90;99.90
44509;DHT22;30214;52.246;14.408;2022-10-16T05:27:54;13.80;99.90
44509;DHT22;30214;52.246;14.408;2022-10-16T05:30:21;13.80;99.90
44509;DHT22;30214;52.246;14.408;2022-10-16T05:32:49;13.70;99.90
44509;DHT22;30214;52.246;14.408;2022-10-16T05:35:19;13.70;99.90
44509;DHT22;30214;52.246;14.408;2022-10-16T05:37:46;13.70;99.90
44509;DHT22;30214;52.246;14.408;2022-10-16T05:40:14;13.60;99.90
44509;DHT22;30214;52.246;14.408;2022-10-16T05:42:42;13.60;99.90
44509;DHT22;30214;52.246;14.408;2022-10-16T05:45:10;13.50;99.90
44509;DHT22;30214;52.246;14.408;2022-10-16T05:47:38;13.50;99.90
44509;DHT22;30214;52.246;14.408;2022-10-16T05:50:05;13.40;99.90
44509;DHT22;30214;52.246;14.408;2022-10-16T05:52:34;13.30;99.90
44509;DHT22;30214;52.246;14.408;2022-10-16T05:55:02;13.40;99.90
44509;DHT22;30214;52.246;14.408;2022-10-16T05:57:29;13.40;99.90
44509;DHT22;30214;52.246;14.408;2022-10-16T05:59:56;13.40;99.90
44509;DHT22;30214;52.246;14.408;2022-10-16T06:02:23;13.50;99.90
44509;DHT22;30214;52.246;14.408;2022-10-16T06:04:51;13.60;99.90
44509;DHT22;30214;52.246;14.408;2022-10-16T06:07:19;13.60;99.90
44509;DHT22;30214;52.246;14.408;2022-10-16T06:09:49;13.70;99.90
44509;DHT22;30214;52.246;14.408;2022-10-16T06:12:16;13.80;99.90
44509;DHT22;30214;52.246;14.408;2022-10-16T06:14:44;13.90;99.90
44509;DHT22;30214;52.246;14.408;2022-10-16T06:17:12;13.90;99.90
44509;DHT22;30214;52.246;14.408;2022-10-16T06:19:39;14.00;99.90
44509;DHT22;30214;52.246;14.408;2022-10-16T06:22:06;14.00;99.90
44509;DHT22;30214;52.246;14.408;2022-10-16T06:24:33;14.10;99.90
44509;DHT22;30214;52.246;14.408;2022-10-16T06:27:02;14.10;99.90
44509;DHT22;30214;52.246;14.408;2022-10-16T06:29:30;14.20;99.90
44509;DHT22;30214;52.246;14.408;2022-10-16T06:31:57;14.20;99.90
44509;DHT22;30214;52.246;14.408;2022-10-16T06:34:24;14.30;99.90
44509;DHT22;30214;52.246;14.408;2022-10-16T06:36:51;14.30;99.90
44509;DHT22;30214;52.246;14.408;2022-10-16T06:39:18;14.40;99.90
44509;DHT22;30214;52.246;14.408;2022-10-16T06:41:45;14.40;99.90
44509;DHT22;30214;52.246;14.408;2022-10-16T06:44:16;14.50;99.90
44509;DHT22;30214;52.246;14.408;2022-10-16T06:46:44;14.50;99.90
44509;DHT22;30214;52.246;14.408;2022-10-16T06:49:11;14.50;99.90
44509;DHT22;30214;52.246;14.408;2022-10-16T06:51:39;14.60;99.90
44509;DHT22;30214;52.246;14.408;2022-10-16T06:54:07;14.70;99.90
44509;DHT22;30214;52.246;14.408;2022-10-16T06:56:34;14.70;99.90
44509;DHT22;30214;52.246;14.408;2022-10-16T06:59:02;14.70;99.90
44509;DHT22;30214;52.246;14.408;2022-10-16T07:01:31;14.70;99.90
44509;DHT22;30214;52.246;14.408;2022-10-16T07:04:00;14.70;99.90
44509;DHT22;30214;52.246;14.408;2022-10-16T07:06:30;14.70;99.90
44509;DHT22;30214;52.246;14.408;2022-10-16T07:08:58;14.80;99.90
44509;DHT22;30214;52.246;14.408;2022-10-16T07:11:25;14.80;99.90
44509;DHT22;30214;52.246;14.408;2022-10-16T07:13:52;15.00;99.90
44509;DHT22;30214;52.246;14.408;2022-10-16T07:16:21;15.20;99.90
44509;DHT22;30214;52.246;14.408;2022-10-16T07:18:50;15.50;99.90
44509;DHT22;30214;52.246;14.408;2022-10-16T07:21:23;15.70;99.90
44509;DHT22;30214;52.246;14.408;2022-10-16T07:23:51;15.80;99.90
44509;DHT22;30214;52.246;14.408;2022-10-16T07:26:18;15.90;99.90
44509;DHT22;30214;52.246;14.408;2022-10-16T07:28:45;15.90;99.90
44509;DHT22;30214;52.246;14.408;2022-10-16T07:31:14;16.00;99.90
44509;DHT22;30214;52.246;14.408;2022-10-16T07:33:44;16.00;99.90
44509;DHT22;30214;52.246;14.408;2022-10-16T07:36:15;16.00;99.90
44509;DHT22;30214;52.246;14.408;2022-10-16T07:38:44;15.90;99.90
44509;DHT22;30214;52.246;14.408;2022-10-16T07:41:13;15.80;99.90
44509;DHT22;30214;52.246;14.408;2022-10-16T07:43:45;15.80;99.90
44509;DHT22;30214;52.246;14.408;2022-10-16T07:46:12;15.90;99.90
44509;DHT22;30214;52.246;14.408;2022-10-16T07:48:39;15.90;99.90
44509;DHT22;30214;52.246;14.408;2022-10-16T07:51:11;16.00;99.90
44509;DHT22;30214;52.246;14.408;2022-10-16T07:53:40;16.00;99.90
44509;DHT22;30214;52.246;14.408;2022-10-16T07:56:08;16.10;99.90
44509;DHT22;30214;52.246;14.408;2022-10-16T07:58:35;16.10;99.90
44509;DHT22;30214;52.246;14.408;2022-10-16T08:01:04;16.20;99.90
44509;DHT22;30214;52.246;14.408;2022-10-16T08:03:33;16.20;99.90
44509;DHT22;30214;52.246;14.408;2022-10-16T08:06:01;16.30;99.90
44509;DHT22;30214;52.246;14.408;2022-10-16T08:08:30;16.40;99.90
44509;DHT22;30214;52.246;14.408;2022-10-16T08:10:57;16.40;99.90
44509;DHT22;30214;52.246;14.408;2022-10-16T08:13:24;16.60;99.90
44509;DHT22;30214;52.246;14.408;2022-10-16T08:15:53;16.70;99.90
44509;DHT22;30214;52.246;14.408;2022-10-16T08:18:21;16.80;99.90
44509;DHT22;30214;52.246;14.408;2022-10-16T08:20:55;16.90;99.90
44509;DHT22;30214;52.246;14.408;2022-10-16T08:23:22;16.90;99.90
44509;DHT22;30214;52.246;14.408;2022-10-16T08:25:52;17.00;99.90
44509;DHT22;30214;52.246;14.408;2022-10-16T08:28:20;17.10;99.90
44509;DHT22;30214;52.246;14.408;2022-10-16T08:30:48;17.20;99.90
44509;DHT22;30214;52.246;14.408;2022-10-16T08:33:15;17.50;99.90
44509;DHT22;30214;52.246;14.408;2022-10-16T08:35:42;17.70;99.90
44509;DHT22;30214;52.246;14.408;2022-10-16T08:38:09;17.80;99.90
44509;DHT22;30214;52.246;14.408;2022-10-16T08:40:37;17.80;99.90
44509;DHT22;30214;52.246;14.408;2022-10-16T08:43:35;17.90;99.90
44509;DHT22;30214;52.246;14.408;2022-10-16T08:46:21;17.80;99.90
44509;DHT22;30214;52.246;14.408;2022-10-16T08:48:57;17.90;99.90
44509;DHT22;30214;52.246;14.408;2022-10-16T08:51:27;17.90;99.90
44509;DHT22;30214;52.246;14.408;2022-10-16T08:53:58;17.90;99.90
44509;DHT22;30214;52.246;14.408;2022-10-16T08:56:26;18.00;99.90
44509;DHT22;30214;52.246;14.408;2022-10-16T08:58:55;18.10;99.90
44509;DHT22;30214;52.246;14.408;2022-10-16T09:01:37;18.30;99.90
44509;DHT22;30214;52.246;14.408;2022-10-16T09:04:39;18.50;99.90
44509;DHT22;30214;52.246;14.408;2022-10-16T09:07:16;18.50;99.90
44509;DHT22;30214;52.246;14.408;2022-10-16T09:09:58;18.50;99.90
44509;DHT22;30214;52.246;14.408;2022-10-16T09:12:40;18.50;99.90
44509;DHT22;30214;52.246;14.408;2022-10-16T09:15:23;18.40;99.90
44509;DHT22;30214;52.246;14.408;2022-10-16T09:18:00;18.40;99.90
44509;DHT22;30214;52.246;14.408;2022-10-16T09:20:45;18.40;99.90
44509;DHT22;30214;52.246;14.408;2022-10-16T09:23:18;18.40;99.90
44509;DHT22;30214;52.246;14.408;2022-10-16T09:25:48;18.50;99.90
44509;DHT22;30214;52.246;14.408;2022-10-16T09:28:17;18.40;99.90
44509;DHT22;30214;52.246;14.408;2022-10-16T09:30:47;18.40;99.90
44509;DHT22;30214;52.246;14.408;2022-10-16T09:33:16;18.40;99.90
44509;DHT22;30214;52.246;14.408;2022-10-16T09:35:45;18.50;99.90
44509;DHT22;30214;52.246;14.408;2022-10-16T09:38:25;18.70;99.90
44509;DHT22;30214;52.246;14.408;2022-10-16T09:40:54;18.90;99.90
44509;DHT22;30214;52.246;14.408;2022-10-16T09:43:24;19.00;99.90
44509;DHT22;30214;52.246;14.408;2022-10-16T09:45:57;19.10;99.90
44509;DHT22;30214;52.246;14.408;2022-10-16T09:48:28;19.30;99.90
44509;DHT22;30214;52.246;14.408;2022-10-16T09:51:00;19.40;99.90
44509;DHT22;30214;52.246;14.408;2022-10-16T09:53:39;19.40;99.90
44509;DHT22;30214;52.246;14.408;2022-10-16T09:56:10;19.20;99.90
44509;DHT22;30214;52.246;14.408;2022-10-16T09:58:42;19.10;99.90
44509;DHT22;30214;52.246;14.408;2022-10-16T10:01:14;19.10;99.90
44509;DHT22;30214;52.246;14.408;2022-10-16T10:03:43;19.10;99.90
44509;DHT22;30214;52.246;14.408;2022-10-16T10:06:21;19.30;99.90
44509;DHT22;30214;52.246;14.408;2022-10-16T10:08:58;19.50;99.90
44509;DHT22;30214;52.246;14.408;2022-10-16T10:11:52;19.70;99.90
44509;DHT22;30214;52.246;14.408;2022-10-16T10:14:26;20.00;99.90
44509;DHT22;30214;52.246;14.408;2022-10-16T10:17:11;20.10;99.90
44509;DHT22;30214;52.246;14.408;2022-10-16T10:19:42;20.20;99.90
44509;DHT22;30214;52.246;14.408;2022-10-16T10:22:19;20.20;99.90
44509;DHT22;30214;52.246;14.408;2022-10-16T10:25:19;20.00;99.90
44509;DHT22;30214;52.246;14.408;2022-10-16T10:28:08;19.90;99.90
44509;DHT22;30214;52.246;14.408;2022-10-16T10:30:48;19.90;99.90
44509;DHT22;30214;52.246;14.408;2022-10-16T10:33:28;19.90;99.90
44509;DHT22;30214;52.246;14.408;2022-10-16T10:36:07;19.90;99.90
44509;DHT22;30214;52.246;14.408;2022-10-16T10:38:54;19.90;99.90
44509;DHT22;30214;52.246;14.408;2022-10-16T10:41:40;19.90;99.90
44509;DHT22;30214;52.246;14.408;2022-10-16T10:47:39;19.90;99.90
44509;DHT22;30214;52.246;14.408;2022-10-16T10:50:19;19.80;99.90
44509;DHT22;30214;52.246;14.408;2022-10-16T10:52:58;19.70;99.90
44509;DHT22;30214;52.246;14.408;2022-10-16T10:55:33;19.70;99.90
44509;DHT22;30214;52.246;14.408;2022-10-16T10:58:35;19.70;99.90
44509;DHT22;30214;52.246;14.408;2022-10-16T11:01:13;19.70;99.90
44509;DHT22;30214;52.246;14.408;2022-10-16T11:03:53;19.70;99.90
44509;DHT22;30214;52.246;14.408;2022-10-16T11:06:44;19.80;99.90
44509;DHT22;30214;52.246;14.408;2022-10-16T11:09:15;19.90;99.90
44509;DHT22;30214;52.246;14.408;2022-10-16T11:11:48;20.00;99.90
44509;DHT22;30214;52.246;14.408;2022-10-16T11:14:20;20.10;99.90
44509;DHT22;30214;52.246;14.408;2022-10-16T11:16:52;20.10;99.90
44509;DHT22;30214;52.246;14.408;2022-10-16T11:19:31;20.10;99.90
44509;DHT22;30214;52.246;14.408;2022-10-16T11:22:05;20.10;99.90
44509;DHT22;30214;52.246;14.408;2022-10-16T11:24:42;20.20;99.90
44509;DHT22;30214;52.246;14.408;2022-10-16T11:27:15;20.20;99.90
44509;DHT22;30214;52.246;14.408;2022-10-16T11:29:48;20.30;99.90
44509;DHT22;30214;52.246;14.408;2022-10-16T11:32:22;20.30;99.90
44509;DHT22;30214;52.246;14.408;2022-10-16T11:34:55;20.20;99.90
44509;DHT22;30214;52.246;14.408;2022-10-16T11:37:27;20.10;99.90
44509;DHT22;30214;52.246;14.408;2022-10-16T11:40:05;20.00;99.90
44509;DHT22;30214;52.246;14.408;2022-10-16T11:42:48;20.00;99.90
44509;DHT22;30214;52.246;14.408;2022-10-16T11:45:26;20.10;99.90
44509;DHT22;30214;52.246;14.408;2022-10-16T11:48:01;20.30;99.90
44509;DHT22;30214;52.246;14.408;2022-10-16T11:50:39;20.50;99.90
44509;DHT22;30214;52.246;14.408;2022-10-16T11:53:18;20.50;99.90
44509;DHT22;30214;52.246;14.408;2022-10-16T11:55:50;20.50;99.90
44509;DHT22;30214;52.246;14.408;2022-10-16T11:58:25;20.50;99.90
44509;DHT22;30214;52.246;14.408;2022-10-16T12:00:59;20.40;99.90
44509;DHT22;30214;52.246;14.408;2022-10-16T12:03:33;20.30;99.90
44509;DHT22;30214;52.246;14.408;2022-10-16T12:06:13;20.40;99.90
44509;DHT22;30214;52.246;14.408;2022-10-16T12:08:47;20.40;99.90
44509;DHT22;30214;52.246;14.408;2022-10-16T12:11:30;20.40;99.90
44509;DHT22;30214;52.246;14.408;2022-10-16T12:14:17;20.40;99.90
44509;DHT22;30214;52.246;14.408;2022-10-16T12:16:55;20.30;99.90
44509;DHT22;30214;52.246;14.408;2022-10-16T12:19:25;20.40;99.90
44509;DHT22;30214;52.246;14.408;2022-10-16T12:21:56;20.40;99.90
44509;DHT22;30214;52.246;14.408;2022-10-16T12:24:34;20.30;99.90
44509;DHT22;30214;52.246;14.408;2022-10-16T12:27:04;20.30;99.90
44509;DHT22;30214;52.246;14.408;2022-10-16T12:29:36;20.40;99.90
44509;DHT22;30214;52.246;14.408;2022-10-16T12:32:05;20.40;99.90
44509;DHT22;30214;52.246;14.408;2022-10-16T12:34:45;20.50;99.90
44509;DHT22;30214;52.246;14.408;2022-10-16T12:37:15;20.50;99.90
44509;DHT22;30214;52.246;14.408;2022-10-16T12:39:48;20.60;99.90
44509;DHT22;30214;52.246;14.408;2022-10-16T12:42:33;20.60;99.90
44509;DHT22;30214;52.246;14.408;2022-10-16T12:45:01;20.60;99.90
44509;DHT22;30214;52.246;14.408;2022-10-16T12:47:50;20.70;99.90
44509;DHT22;30214;52.246;14.408;2022-10-16T12:50:30;20.70;99.90
44509;DHT22;30214;52.246;14.408;2022-10-16T12:52:59;20.80;99.90
44509;DHT22;30214;52.246;14.408;2022-10-16T12:55:34;20.80;99.90
44509;DHT22;30214;52.246;14.408;2022-10-16T12:58:18;20.90;99.90
44509;DHT22;30214;52.246;14.408;2022-10-16T13:01:09;20.90;99.90
44509;DHT22;30214;52.246;14.408;2022-10-16T13:04:10;20.80;99.90
44509;DHT22;30214;52.246;14.408;2022-10-16T13:07:09;20.60;99.90
44509;DHT22;30214;52.246;14.408;2022-10-16T13:09:58;20.50;99.90
44509;DHT22;30214;52.246;14.408;2022-10-16T13:12:51;20.60;99.90
44509;DHT22;30214;52.246;14.408;2022-10-16T13:15:35;20.50;99.90
44509;DHT22;30214;52.246;14.408;2022-10-16T13:18:14;20.50;99.90
44509;DHT22;30214;52.246;14.408;2022-10-16T13:20:56;20.60;99.90
44509;DHT22;30214;52.246;14.408;2022-10-16T13:23:35;20.50;99.90
44509;DHT22;30214;52.246;14.408;2022-10-16T13:26:59;20.50;99.90
44509;DHT22;30214;52.246;14.408;2022-10-16T13:29:33;20.50;99.90
44509;DHT22;30214;52.246;14.408;2022-10-16T13:32:06;20.40;99.90
44509;DHT22;30214;52.246;14.408;2022-10-16T13:34:44;20.40;99.90
44509;DHT22;30214;52.246;14.408;2022-10-16T13:37:18;20.30;99.90
44509;DHT22;30214;52.246;14.408;2022-10-16T13:39:46;20.20;99.90
44509;DHT22;30214;52.246;14.408;2022-10-16T13:42:18;20.10;99.90
44509;DHT22;30214;52.246;14.408;2022-10-16T13:44:52;20.00;99.90
44509;DHT22;30214;52.246;14.408;2022-10-16T13:47:21;20.00;99.90
44509;DHT22;30214;52.246;14.408;2022-10-16T13:49:59;20.10;99.90
44509;DHT22;30214;52.246;14.408;2022-10-16T13:52:27;20.10;99.90
44509;DHT22;30214;52.246;14.408;2022-10-16T13:54:54;20.10;99.90
44509;DHT22;30214;52.246;14.408;2022-10-16T13:57:23;20.10;99.90
44509;DHT22;30214;52.246;14.408;2022-10-16T13:59:53;20.20;99.90
44509;DHT22;30214;52.246;14.408;2022-10-16T14:02:25;20.20;99.90
44509;DHT22;30214;52.246;14.408;2022-10-16T14:04:54;20.20;99.90
44509;DHT22;30214;52.246;14.408;2022-10-16T14:07:24;20.20;99.90
44509;DHT22;30214;52.246;14.408;2022-10-16T14:09:53;20.20;99.90
44509;DHT22;30214;52.246;14.408;2022-10-16T14:12:22;20.20;99.90
44509;DHT22;30214;52.246;14.408;2022-10-16T14:14:52;20.20;99.90
44509;DHT22;30214;52.246;14.408;2022-10-16T14:17:22;20.10;99.90
44509;DHT22;30214;52.246;14.408;2022-10-16T14:19:53;20.20;99.90
44509;DHT22;30214;52.246;14.408;2022-10-16T14:22:28;20.10;99.90
44509;DHT22;30214;52.246;14.408;2022-10-16T14:24:57;20.00;99.90
44509;DHT22;30214;52.246;14.408;2022-10-16T14:27:29;20.00;99.90
44509;DHT22;30214;52.246;14.408;2022-10-16T14:30:16;20.00;99.90
44509;DHT22;30214;52.246;14.408;2022-10-16T14:32:54;20.00;99.90
44509;DHT22;30214;52.246;14.408;2022-10-16T14:35:27;19.90;99.90
44509;DHT22;30214;52.246;14.408;2022-10-16T14:37:58;19.90;99.90
44509;DHT22;30214;52.246;14.408;2022-10-16T14:40:28;19.90;99.90
44509;DHT22;30214;52.246;14.408;2022-10-16T14:42:57;20.00;99.90
44509;DHT22;30214;52.246;14.408;2022-10-16T14:45:28;19.80;99.90
44509;DHT22;30214;52.246;14.408;2022-10-16T14:47:59;19.70;99.90
44509;DHT22;30214;52.246;14.408;2022-10-16T14:50:28;19.70;99.90
44509;DHT22;30214;52.246;14.408;2022-10-16T14:52:55;19.60;99.90
44509;DHT22;30214;52.246;14.408;2022-10-16T14:55:22;19.60;99.90
44509;DHT22;30214;52.246;14.408;2022-10-16T14:57:49;19.60;99.90
44509;DHT22;30214;52.246;14.408;2022-10-16T15:00:19;19.60;99.90
44509;DHT22;30214;52.246;14.408;2022-10-16T15:02:49;19.60;99.90
44509;DHT22;30214;52.246;14.408;2022-10-16T15:05:19;19.60;99.90
44509;DHT22;30214;52.246;14.408;2022-10-16T15:07:48;19.70;99.90
44509;DHT22;30214;52.246;14.408;2022-10-16T15:10:16;19.60;99.90
44509;DHT22;30214;52.246;14.408;2022-10-16T15:12:44;19.50;99.90
44509;DHT22;30214;52.246;14.408;2022-10-16T15:15:33;19.40;99.90
44509;DHT22;30214;52.246;14.408;2022-10-16T15:18:04;19.40;99.90
44509;DHT22;30214;52.246;14.408;2022-10-16T15:20:33;19.30;99.90
44509;DHT22;30214;52.246;14.408;2022-10-16T15:23:01;19.20;99.90
44509;DHT22;30214;52.246;14.408;2022-10-16T15:25:32;19.10;99.90
44509;DHT22;30214;52.246;14.408;2022-10-16T15:28:03;19.00;99.90
44509;DHT22;30214;52.246;14.408;2022-10-16T15:30:31;19.00;99.90
44509;DHT22;30214;52.246;14.408;2022-10-16T15:32:58;18.90;99.90
44509;DHT22;30214;52.246;14.408;2022-10-16T15:35:27;18.90;99.90
44509;DHT22;30214;52.246;14.408;2022-10-16T15:37:54;18.80;99.90
44509;DHT22;30214;52.246;14.408;2022-10-16T15:40:22;18.80;99.90
44509;DHT22;30214;52.246;14.408;2022-10-16T15:42:49;18.70;99.90
44509;DHT22;30214;52.246;14.408;2022-10-16T15:45:17;18.60;99.90
44509;DHT22;30214;52.246;14.408;2022-10-16T15:47:44;18.50;99.90